createdAt,value
2023-01-27T00:01:16.689Z,-0.30
2023-01-27T00:03:44.714Z,-0.20
2023-01-27T00:06:13.056Z,-0.20
2023-01-27T00:08:41.053Z,-0.30
2023-01-27T00:11:28.330Z,-0.40
2023-01-27T00:13:57.124Z,-0.40
2023-01-27T00:16:25.039Z,-0.40
2023-01-27T00:18:52.938Z,-0.40
2023-01-27T00:21:52.589Z,-0.40
2023-01-27T00:24:38.892Z,-0.40
2023-01-27T00:27:09.955Z,-0.40
2023-01-27T00:29:40.657Z,-0.50
2023-01-27T00:32:26.154Z,-0.50
2023-01-27T00:34:54.055Z,-0.40
2023-01-27T00:37:22.074Z,-0.40
2023-01-27T00:39:50.044Z,-0.40
2023-01-27T00:42:19.529Z,-0.40
2023-01-27T00:45:07.946Z,-0.30
2023-01-27T00:47:35.880Z,-0.30
2023-01-27T00:50:03.957Z,-0.30
2023-01-27T00:52:31.825Z,-0.30
2023-01-27T00:54:59.733Z,-0.20
2023-01-27T00:57:28.993Z,-0.20
2023-01-27T00:59:59.532Z,-0.20
2023-01-27T01:02:27.758Z,-0.30
2023-01-27T01:04:56.079Z,-0.20
2023-01-27T01:07:24.056Z,-0.30
2023-01-27T01:09:51.993Z,-0.30
2023-01-27T01:12:20.035Z,-0.20
2023-01-27T01:14:49.392Z,-0.20
2023-01-27T01:17:17.427Z,-0.20
2023-01-27T01:19:45.319Z,-0.20
2023-01-27T01:22:13.218Z,-0.20
2023-01-27T01:24:42.428Z,-0.20
2023-01-27T01:27:10.316Z,-0.20
2023-01-27T01:29:38.301Z,-0.30
2023-01-27T01:32:09.853Z,-0.30
2023-01-27T01:34:38.197Z,-0.30
2023-01-27T01:37:06.416Z,-0.30
2023-01-27T01:39:34.531Z,-0.30
2023-01-27T01:42:02.825Z,-0.30
2023-01-27T01:44:33.305Z,-0.20
2023-01-27T01:47:01.318Z,-0.20
2023-01-27T01:49:37.912Z,-0.20
2023-01-27T01:52:11.262Z,-0.10
2023-01-27T01:54:43.529Z,-0.10
2023-01-27T01:57:21.085Z,-0.20
2023-01-27T01:59:56.852Z,-0.20
2023-01-27T02:02:26.843Z,-0.20
2023-01-27T02:05:03.705Z,-0.20
2023-01-27T02:07:40.611Z,-0.20
2023-01-27T02:10:09.808Z,-0.30
2023-01-27T02:12:37.868Z,-0.20
2023-01-27T02:15:11.293Z,-0.20
2023-01-27T02:17:39.788Z,-0.20
2023-01-27T02:20:20.671Z,-0.30
2023-01-27T02:22:58.350Z,-0.20
2023-01-27T02:25:40.070Z,-0.20
2023-01-27T02:28:09.588Z,-0.10
2023-01-27T02:30:37.576Z,-0.20
2023-01-27T02:33:12.666Z,-0.20
2023-01-27T02:35:48.600Z,-0.20
2023-01-27T02:38:19.785Z,-0.20
2023-01-27T02:40:53.211Z,-0.20
2023-01-27T02:43:21.215Z,-0.20
2023-01-27T02:45:49.211Z,-0.30
2023-01-27T02:48:17.189Z,-0.20
2023-01-27T02:50:45.112Z,-0.30
2023-01-27T02:53:13.117Z,-0.20
2023-01-27T02:55:41.110Z,-0.20
2023-01-27T02:58:10.343Z,-0.20
2023-01-27T03:00:49.675Z,-0.20
2023-01-27T03:03:17.963Z,-0.20
2023-01-27T03:05:46.563Z,-0.30
2023-01-27T03:08:14.854Z,-0.30
2023-01-27T03:10:43.904Z,-0.20
2023-01-27T03:13:13.415Z,-0.20
2023-01-27T03:15:58.835Z,-0.20
2023-01-27T03:18:27.130Z,-0.20
2023-01-27T03:21:03.195Z,-0.20
2023-01-27T03:23:34.498Z,-0.20
2023-01-27T03:26:07.293Z,-0.10
2023-01-27T03:28:38.525Z,-0.10
2023-01-27T03:31:19.458Z,-0.10
2023-01-27T03:33:53.897Z,-0.10
2023-01-27T03:36:59.949Z,-0.10
2023-01-27T03:39:48.002Z,-0.20
2023-01-27T03:42:34.411Z,-0.20
2023-01-27T03:45:21.593Z,-0.20
2023-01-27T03:47:49.486Z,-0.20
2023-01-27T03:50:19.281Z,-0.20
2023-01-27T03:53:03.045Z,-0.20
2023-01-27T03:55:31.442Z,-0.20
2023-01-27T03:58:06.018Z,-0.30
2023-01-27T04:00:35.253Z,-0.20
2023-01-27T04:03:20.604Z,-0.20
2023-01-27T04:06:06.031Z,-0.20
2023-01-27T04:08:34.842Z,-0.20
2023-01-27T04:11:21.994Z,-0.10
2023-01-27T04:13:49.921Z,-0.20
2023-01-27T04:16:19.873Z,-0.20
2023-01-27T04:18:49.738Z,-0.20
2023-01-27T04:21:17.708Z,-0.20
2023-01-27T04:23:45.800Z,-0.20
2023-01-27T04:26:13.710Z,-0.20
2023-01-27T04:28:44.575Z,-0.30
2023-01-27T04:31:12.986Z,-0.30
2023-01-27T04:33:42.526Z,-0.30
2023-01-27T04:36:10.669Z,-0.20
2023-01-27T04:38:39.029Z,-0.20
2023-01-27T04:41:07.037Z,-0.20
2023-01-27T04:43:35.031Z,-0.20
2023-01-27T04:46:03.036Z,-0.20
2023-01-27T04:48:31.016Z,-0.20
2023-01-27T04:51:00.281Z,-0.20
2023-01-27T04:53:28.234Z,-0.20
2023-01-27T04:56:04.546Z,-0.20
2023-01-27T04:58:32.712Z,-0.20
2023-01-27T05:01:00.685Z,-0.20
2023-01-27T05:03:28.589Z,-0.20
2023-01-27T05:05:56.613Z,-0.30
2023-01-27T05:08:25.832Z,-0.30
2023-01-27T05:10:53.988Z,-0.30
2023-01-27T05:13:22.701Z,-0.30
2023-01-27T05:15:50.848Z,-0.30
2023-01-27T05:18:18.990Z,-0.20
2023-01-27T05:20:46.868Z,-0.10
2023-01-27T05:23:32.394Z,-0.10
2023-01-27T05:26:05.613Z,-0.20
2023-01-27T05:28:33.736Z,-0.20
2023-01-27T05:31:05.371Z,-0.20
2023-01-27T05:33:33.623Z,-0.20
2023-01-27T05:36:03.624Z,-0.20
2023-01-27T05:38:32.419Z,-0.20
2023-01-27T05:41:05.201Z,-0.20
2023-01-27T05:43:35.510Z,-0.20
2023-01-27T05:46:34.817Z,-0.20
2023-01-27T05:49:05.386Z,-0.20
2023-01-27T05:51:36.335Z,-0.20
2023-01-27T05:54:04.995Z,-0.10
2023-01-27T05:56:35.000Z,-0.20
2023-01-27T05:59:03.287Z,-0.20
2023-01-27T06:01:37.409Z,-0.20
2023-01-27T06:04:06.389Z,-0.10
2023-01-27T06:06:35.327Z,-0.20
2023-01-27T06:09:03.716Z,-0.20
2023-01-27T06:11:31.694Z,-0.20
2023-01-27T06:14:00.972Z,-0.20
2023-01-27T06:16:28.955Z,-0.20
2023-01-27T06:18:58.572Z,-0.20
2023-01-27T06:21:26.610Z,-0.10
2023-01-27T06:23:54.526Z,-0.20
2023-01-27T06:26:22.540Z,-0.10
2023-01-27T06:28:50.624Z,-0.10
2023-01-27T06:31:22.528Z,-0.20
2023-01-27T06:33:51.309Z,-0.20
2023-01-27T06:36:22.669Z,-0.20
2023-01-27T06:38:51.447Z,-0.20
2023-01-27T06:41:20.729Z,-0.20
2023-01-27T06:43:48.677Z,-0.20
2023-01-27T06:46:16.734Z,-0.20
2023-01-27T06:48:46.038Z,-0.20
2023-01-27T06:51:14.299Z,-0.20
2023-01-27T06:53:42.728Z,-0.20
2023-01-27T06:56:10.634Z,-0.20
2023-01-27T06:58:38.511Z,-0.20
2023-01-27T07:01:07.469Z,-0.20
2023-01-27T07:03:36.573Z,-0.20
2023-01-27T07:06:06.524Z,-0.20
2023-01-27T07:08:34.486Z,-0.20
2023-01-27T07:11:05.102Z,-0.20
2023-01-27T07:13:33.091Z,-0.20
2023-01-27T07:16:01.503Z,-0.20
2023-01-27T07:18:29.829Z,-0.20
2023-01-27T07:20:57.782Z,-0.20
2023-01-27T07:23:27.050Z,-0.30
2023-01-27T07:25:55.025Z,-0.20
2023-01-27T07:28:22.935Z,-0.30
2023-01-27T07:30:50.931Z,-0.30
2023-01-27T07:33:18.960Z,-0.20
2023-01-27T07:35:50.444Z,-0.20
2023-01-27T07:38:18.513Z,-0.20
2023-01-27T07:40:47.895Z,-0.20
2023-01-27T07:43:15.798Z,-0.20
2023-01-27T07:45:44.577Z,-0.10
2023-01-27T07:48:13.106Z,-0.10
2023-01-27T07:50:42.584Z,-0.10
2023-01-27T07:53:12.311Z,-0.10
2023-01-27T07:55:40.249Z,-0.10
2023-01-27T07:58:10.019Z,-0.10
2023-01-27T08:00:37.949Z,-0.10
2023-01-27T08:03:06.656Z,-0.10
2023-01-27T08:05:36.027Z,-0.10
2023-01-27T08:08:04.695Z,-0.10
2023-01-27T08:10:33.172Z,-0.10
2023-01-27T08:13:01.214Z,-0.10
2023-01-27T08:15:30.561Z,-0.10
2023-01-27T08:18:00.039Z,-0.10
2023-01-27T08:20:29.182Z,-0.10
2023-01-27T08:22:57.495Z,-0.10
2023-01-27T08:25:25.875Z,-0.10
2023-01-27T08:27:56.073Z,-0.10
2023-01-27T08:30:24.227Z,-0.10
2023-01-27T08:32:53.797Z,-0.10
2023-01-27T08:35:22.016Z,0.00
2023-01-27T08:37:50.113Z,0.00
2023-01-27T08:40:19.333Z,0.00
2023-01-27T08:42:47.441Z,-0.10
2023-01-27T08:45:15.847Z,-0.10
2023-01-27T08:47:43.928Z,-0.10
2023-01-27T08:50:13.727Z,-0.10
2023-01-27T08:52:41.988Z,-0.10
2023-01-27T08:55:10.116Z,-0.20
2023-01-27T08:57:38.222Z,-0.20
2023-01-27T09:00:08.711Z,-0.20
2023-01-27T09:02:36.810Z,-0.20
2023-01-27T09:05:05.253Z,-0.20
2023-01-27T09:07:35.216Z,-0.20
2023-01-27T09:10:18.630Z,-0.20
2023-01-27T09:12:46.761Z,-0.20
2023-01-27T09:15:15.841Z,-0.20
2023-01-27T09:17:43.989Z,-0.20
2023-01-27T09:20:13.552Z,-0.20
2023-01-27T09:22:44.113Z,-0.10
2023-01-27T09:25:17.039Z,-0.10
2023-01-27T09:27:45.904Z,-0.10
2023-01-27T09:30:16.969Z,0.00
2023-01-27T09:32:45.048Z,0.00
2023-01-27T09:35:13.485Z,-0.10
2023-01-27T09:37:48.284Z,-0.10
2023-01-27T09:40:31.431Z,0.00
2023-01-27T09:43:53.510Z,0.00
2023-01-27T09:46:59.954Z,0.00
2023-01-27T09:49:54.587Z,0.00
2023-01-27T09:52:58.241Z,0.00
2023-01-27T09:55:36.786Z,0.00
2023-01-27T09:58:13.791Z,0.00
2023-01-27T10:00:58.613Z,0.00
2023-01-27T10:04:04.256Z,0.00
2023-01-27T10:06:55.650Z,0.00
2023-01-27T10:10:01.366Z,-0.10
2023-01-27T10:12:49.847Z,-0.10
2023-01-27T10:15:34.521Z,0.00
2023-01-27T10:18:20.160Z,-0.10
2023-01-27T10:21:01.050Z,0.00
2023-01-27T10:23:44.609Z,0.00
2023-01-27T10:26:26.028Z,0.00
2023-01-27T10:29:09.179Z,-0.10
2023-01-27T10:31:46.106Z,0.00
2023-01-27T10:34:29.177Z,0.00
2023-01-27T10:37:15.905Z,0.00
2023-01-27T10:39:53.340Z,0.00
2023-01-27T10:42:35.142Z,0.00
2023-01-27T10:45:24.973Z,0.00
2023-01-27T10:48:14.202Z,0.00
2023-01-27T10:50:46.934Z,0.00
2023-01-27T10:53:22.668Z,0.10
2023-01-27T10:56:01.921Z,0.10
2023-01-27T10:58:47.196Z,0.00
2023-01-27T11:01:24.356Z,0.10
2023-01-27T11:04:00.767Z,0.10
2023-01-27T11:06:36.375Z,0.00
2023-01-27T11:09:16.548Z,0.00
2023-01-27T11:11:46.998Z,0.10
2023-01-27T11:14:28.787Z,0.00
2023-01-27T11:17:13.590Z,0.00
2023-01-27T11:19:51.577Z,0.00
2023-01-27T11:22:25.477Z,0.00
2023-01-27T11:25:05.691Z,0.00
2023-01-27T11:28:00.083Z,0.10
2023-01-27T11:30:39.233Z,0.10
2023-01-27T11:33:19.987Z,0.10
2023-01-27T11:35:55.059Z,0.20
2023-01-27T11:38:24.910Z,0.20
2023-01-27T11:40:55.094Z,0.20
2023-01-27T11:43:27.656Z,0.20
2023-01-27T11:46:05.706Z,0.20
2023-01-27T11:48:42.139Z,0.20
2023-01-27T11:51:18.356Z,0.20
2023-01-27T11:53:51.863Z,0.30
2023-01-27T11:56:21.189Z,0.30
2023-01-27T11:58:57.687Z,0.30
2023-01-27T12:01:44.654Z,0.40
2023-01-27T12:04:20.349Z,0.40
2023-01-27T12:06:55.466Z,0.50
2023-01-27T12:09:36.622Z,0.50
2023-01-27T12:12:22.136Z,0.50
2023-01-27T12:14:54.045Z,0.40
2023-01-27T12:17:33.881Z,0.40
2023-01-27T12:20:07.612Z,0.40
2023-01-27T12:22:41.101Z,0.40
2023-01-27T12:25:19.580Z,0.40
2023-01-27T12:27:53.578Z,0.40
2023-01-27T12:30:25.214Z,0.40
2023-01-27T12:32:55.454Z,0.40
2023-01-27T12:35:30.402Z,0.40
2023-01-27T12:38:03.953Z,0.40
2023-01-27T12:40:35.175Z,0.40
2023-01-27T12:43:14.630Z,0.50
2023-01-27T12:45:44.238Z,0.50
2023-01-27T12:48:22.900Z,0.60
2023-01-27T12:51:06.652Z,0.60
2023-01-27T12:53:34.760Z,0.60
2023-01-27T12:56:13.170Z,0.60
2023-01-27T12:58:44.492Z,0.60
2023-01-27T13:01:30.116Z,0.60
2023-01-27T13:04:04.469Z,0.60
2023-01-27T13:06:42.153Z,0.60
2023-01-27T13:09:25.493Z,0.70
2023-01-27T13:11:55.986Z,0.60
2023-01-27T13:14:24.337Z,0.70
2023-01-27T13:16:53.991Z,0.70
2023-01-27T13:19:36.978Z,0.60
2023-01-27T13:22:20.215Z,0.60
2023-01-27T13:24:53.742Z,0.60
2023-01-27T13:27:23.924Z,0.60
2023-01-27T13:30:01.749Z,0.50
2023-01-27T13:32:33.777Z,0.50
2023-01-27T13:35:18.356Z,0.50
2023-01-27T13:38:00.228Z,0.50
2023-01-27T13:40:35.214Z,0.50
2023-01-27T13:43:13.337Z,0.60
2023-01-27T13:45:47.170Z,0.60
2023-01-27T13:48:23.396Z,0.60
2023-01-27T13:51:09.293Z,0.60
2023-01-27T13:53:38.663Z,0.60
2023-01-27T13:56:26.750Z,0.60
2023-01-27T13:59:09.127Z,0.70
2023-01-27T14:01:51.275Z,0.70
2023-01-27T14:04:46.004Z,0.60
2023-01-27T14:07:29.159Z,0.70
2023-01-27T14:10:24.172Z,0.70
2023-01-27T14:13:14.287Z,0.80
2023-01-27T14:15:54.823Z,0.80
2023-01-27T14:18:27.446Z,0.70
2023-01-27T14:21:14.080Z,0.70
2023-01-27T14:24:00.794Z,0.80
2023-01-27T14:26:48.539Z,0.80
2023-01-27T14:29:31.214Z,0.80
2023-01-27T14:32:14.935Z,0.70
2023-01-27T14:35:05.441Z,0.70
2023-01-27T14:37:46.330Z,0.80
2023-01-27T14:40:21.972Z,0.80
2023-01-27T14:43:06.136Z,0.80
2023-01-27T14:45:38.142Z,0.80
2023-01-27T14:48:28.778Z,0.80
2023-01-27T14:51:09.233Z,0.90
2023-01-27T14:53:58.726Z,0.90
2023-01-27T14:56:46.108Z,0.90
2023-01-27T14:59:35.575Z,0.80
2023-01-27T15:02:19.881Z,0.80
2023-01-27T15:04:59.777Z,0.80
2023-01-27T15:07:38.661Z,0.90
2023-01-27T15:10:29.341Z,0.90
2023-01-27T15:13:37.623Z,0.90
2023-01-27T15:16:33.953Z,1.00
2023-01-27T15:19:38.046Z,0.90
2023-01-27T15:22:43.807Z,1.00
2023-01-27T15:25:33.348Z,1.00
2023-01-27T15:28:05.172Z,1.00
2023-01-27T15:30:38.081Z,1.00
2023-01-27T15:33:51.159Z,1.00
2023-01-27T15:36:34.712Z,1.00
2023-01-27T15:39:21.818Z,1.00
2023-01-27T15:42:11.717Z,1.00
2023-01-27T15:44:59.209Z,1.00
2023-01-27T15:47:31.531Z,1.10
2023-01-27T15:50:19.991Z,1.00
2023-01-27T15:52:50.524Z,1.00
2023-01-27T15:55:28.822Z,1.00
2023-01-27T15:58:12.477Z,1.00
2023-01-27T16:00:51.027Z,1.00
2023-01-27T16:06:49.227Z,1.00
2023-01-27T16:09:32.231Z,1.00
2023-01-27T16:12:04.477Z,1.00
2023-01-27T16:14:43.275Z,1.00
2023-01-27T16:17:20.896Z,1.00
2023-01-27T16:19:58.539Z,1.00
2023-01-27T16:22:28.734Z,1.00
2023-01-27T16:25:13.826Z,1.10
2023-01-27T16:27:56.623Z,1.00
2023-01-27T16:30:30.312Z,1.00
2023-01-27T16:33:06.475Z,1.00
2023-01-27T16:35:44.634Z,0.90
2023-01-27T16:38:26.357Z,1.00
2023-01-27T16:40:59.543Z,1.00
2023-01-27T16:43:32.997Z,1.00
2023-01-27T16:46:02.619Z,1.10
2023-01-27T16:48:39.850Z,1.10
2023-01-27T16:51:16.168Z,1.10
2023-01-27T16:53:48.331Z,1.10
2023-01-27T16:56:26.059Z,1.10
2023-01-27T16:59:01.464Z,1.10
2023-01-27T17:01:38.120Z,1.10
2023-01-27T17:04:19.981Z,1.00
2023-01-27T17:06:49.301Z,1.10
2023-01-27T17:09:26.527Z,1.00
2023-01-27T17:11:55.615Z,1.10
2023-01-27T17:14:32.150Z,1.10
2023-01-27T17:17:02.932Z,1.10
2023-01-27T17:20:03.795Z,1.10
2023-01-27T17:22:40.181Z,1.10
2023-01-27T17:25:16.730Z,1.10
2023-01-27T17:27:46.392Z,1.10
2023-01-27T17:30:22.682Z,1.20
2023-01-27T17:32:54.405Z,1.20
2023-01-27T17:35:28.251Z,1.10
2023-01-27T17:38:13.026Z,1.10
2023-01-27T17:40:44.767Z,1.20
2023-01-27T17:43:29.245Z,1.30
2023-01-27T17:46:23.302Z,1.30
2023-01-27T17:48:59.934Z,1.30
2023-01-27T17:51:36.193Z,1.20
2023-01-27T17:54:21.792Z,1.20
2023-01-27T17:56:56.696Z,1.20
2023-01-27T17:59:26.902Z,1.20
2023-01-27T18:02:00.075Z,1.20
2023-01-27T18:04:28.450Z,1.20
2023-01-27T18:06:58.486Z,1.20
2023-01-27T18:09:28.549Z,1.10
2023-01-27T18:11:59.883Z,1.10
2023-01-27T18:14:32.939Z,1.20
2023-01-27T18:17:03.679Z,1.20
2023-01-27T18:19:34.199Z,1.20
2023-01-27T18:22:12.771Z,1.20
2023-01-27T18:24:49.682Z,1.20
2023-01-27T18:27:28.538Z,1.20
2023-01-27T18:30:02.721Z,1.20
2023-01-27T18:32:40.186Z,1.20
2023-01-27T18:35:26.415Z,1.20
2023-01-27T18:38:00.010Z,1.20
2023-01-27T18:40:31.740Z,1.20
2023-01-27T18:43:01.387Z,1.30
2023-01-27T18:45:29.381Z,1.30
2023-01-27T18:47:59.578Z,1.40
2023-01-27T18:50:28.707Z,1.40
2023-01-27T18:52:57.980Z,1.40
2023-01-27T18:55:28.346Z,1.40
2023-01-27T18:57:58.932Z,1.40
2023-01-27T19:00:31.020Z,1.40
2023-01-27T19:03:01.680Z,1.30
2023-01-27T19:05:32.364Z,1.30
2023-01-27T19:08:02.842Z,1.30
2023-01-27T19:10:34.123Z,1.40
2023-01-27T19:13:04.617Z,1.40
2023-01-27T19:15:35.923Z,1.40
2023-01-27T19:18:19.711Z,1.50
2023-01-27T19:20:47.745Z,1.50
2023-01-27T19:23:20.103Z,1.50
2023-01-27T19:25:52.281Z,1.50
2023-01-27T19:28:29.871Z,1.50
2023-01-27T19:30:58.985Z,1.50
2023-01-27T19:33:28.997Z,1.50
2023-01-27T19:36:00.721Z,1.50
2023-01-27T19:38:31.107Z,1.50
2023-01-27T19:40:59.069Z,1.50
2023-01-27T19:43:27.274Z,1.60
2023-01-27T19:45:55.357Z,1.60
2023-01-27T19:48:26.053Z,1.60
2023-01-27T19:50:54.083Z,1.60
2023-01-27T19:53:22.015Z,1.70
2023-01-27T19:55:51.681Z,1.70
2023-01-27T19:58:24.774Z,1.70
2023-01-27T20:00:55.020Z,1.70
2023-01-27T20:03:24.508Z,1.70
2023-01-27T20:05:52.661Z,1.70
2023-01-27T20:08:22.890Z,1.70
2023-01-27T20:10:52.570Z,1.70
2023-01-27T20:13:21.958Z,1.70
2023-01-27T20:15:50.182Z,1.70
2023-01-27T20:18:20.381Z,1.70
2023-01-27T20:20:49.993Z,1.70
2023-01-27T20:23:18.665Z,1.70
2023-01-27T20:25:46.573Z,1.70
2023-01-27T20:28:15.763Z,1.70
2023-01-27T20:30:43.955Z,1.70
2023-01-27T20:33:14.469Z,1.70
2023-01-27T20:35:42.694Z,1.70
2023-01-27T20:38:10.642Z,1.70
2023-01-27T20:40:38.566Z,1.70
2023-01-27T20:43:06.464Z,1.70
2023-01-27T20:45:37.175Z,1.70
2023-01-27T20:48:05.723Z,1.70
2023-01-27T20:50:33.740Z,1.70
2023-01-27T20:53:01.672Z,1.70
2023-01-27T20:55:31.322Z,1.60
2023-01-27T20:58:01.150Z,1.70
2023-01-27T21:00:29.186Z,1.70
2023-01-27T21:02:58.470Z,1.60
2023-01-27T21:05:26.438Z,1.60
2023-01-27T21:07:54.381Z,1.60
2023-01-27T21:10:23.225Z,1.70
2023-01-27T21:12:51.143Z,1.60
2023-01-27T21:15:19.040Z,1.60
2023-01-27T21:17:46.940Z,1.60
2023-01-27T21:20:16.839Z,1.60
2023-01-27T21:22:46.169Z,1.60
2023-01-27T21:25:14.812Z,1.60
2023-01-27T21:27:43.421Z,1.60
2023-01-27T21:30:13.520Z,1.60
2023-01-27T21:32:41.427Z,1.60
2023-01-27T21:35:09.950Z,1.50
2023-01-27T21:37:40.221Z,1.50
2023-01-27T21:40:09.961Z,1.50
2023-01-27T21:42:55.304Z,1.50
2023-01-27T21:45:24.176Z,1.60
2023-01-27T21:47:52.489Z,1.60
2023-01-27T21:50:20.565Z,1.60
2023-01-27T21:52:51.853Z,1.60
2023-01-27T21:55:22.592Z,1.60
2023-01-27T21:57:54.788Z,1.60
2023-01-27T22:00:26.001Z,1.60
2023-01-27T22:02:55.531Z,1.60
2023-01-27T22:05:24.846Z,1.60
2023-01-27T22:07:54.611Z,1.60
2023-01-27T22:10:25.877Z,1.60
2023-01-27T22:12:58.573Z,1.60
2023-01-27T22:15:28.617Z,1.60
2023-01-27T22:17:56.767Z,1.60
2023-01-27T22:20:24.762Z,1.60
2023-01-27T22:22:54.135Z,1.60
2023-01-27T22:25:22.504Z,1.60
2023-01-27T22:27:50.394Z,1.50
2023-01-27T22:30:19.759Z,1.50
2023-01-27T22:32:49.593Z,1.60
2023-01-27T22:35:19.476Z,1.70
2023-01-27T22:37:49.001Z,1.60
2023-01-27T22:40:18.677Z,1.60
2023-01-27T22:42:48.920Z,1.50
2023-01-27T22:45:17.619Z,1.50
2023-01-27T22:47:46.185Z,1.50
2023-01-27T22:50:14.177Z,1.60
2023-01-27T22:52:44.822Z,1.60
2023-01-27T22:55:14.024Z,1.60
2023-01-27T22:57:45.680Z,1.60
2023-01-27T23:00:14.643Z,1.60
2023-01-27T23:02:42.751Z,1.60
2023-01-27T23:05:11.122Z,1.60
2023-01-27T23:07:39.088Z,1.60
2023-01-27T23:10:08.576Z,1.60
2023-01-27T23:12:36.571Z,1.60
2023-01-27T23:15:07.787Z,1.60
2023-01-27T23:17:36.186Z,1.60
2023-01-27T23:20:04.730Z,1.60
2023-01-27T23:22:33.302Z,1.60
2023-01-27T23:25:01.330Z,1.60
2023-01-27T23:27:29.386Z,1.60
2023-01-27T23:29:57.308Z,1.60
2023-01-27T23:32:26.597Z,1.60
2023-01-27T23:34:54.523Z,1.60
2023-01-27T23:37:22.474Z,1.60
2023-01-27T23:39:50.486Z,1.60
2023-01-27T23:42:19.173Z,1.60
2023-01-27T23:44:48.153Z,1.60
2023-01-27T23:47:17.734Z,1.60
2023-01-27T23:49:47.444Z,1.70
2023-01-27T23:52:15.571Z,1.70
2023-01-27T23:54:43.480Z,1.60
2023-01-27T23:57:11.370Z,1.60
2023-01-27T23:59:41.173Z,1.60
